ADDS - METARS form results

Aviation Digital Data Service (ADDS)

Output produced by METARs form (0059 UTC 11 December 2018)
found at http://aviationweather.gov/metar/data/
 
METAR text: KC09 110035Z AUTO 22007KT 7SM CLR M02/M04 A3018 RMK AO2 T10251041
Conditions at: KC09 (MORRIS-WASHBURN , IL, US) observed 0035 UTC 11 December 2018
Temperature: -2.5°C (28°F)
Dewpoint: -4.1°C (25°F) [RH = 89%]
Pressure (altimeter): 30.18 inches Hg (1022.1 mb)
Winds: from the SW (220 degrees) at 8 MPH (7 knots; 3.6 m/s)
Visibility: 7 miles (11 km)
Ceiling: at least 12,000 feet AGL
Clouds: sky clear below 12,000 feet AGL
Weather: automated observation with no human augmentation;
there may or may not be significant weather present at this time

METAR text: KC09 110015Z AUTO 21007KT 7SM CLR M03/M04 A3018 RMK AO2 T10261041
Conditions at: KC09 (MORRIS-WASHBURN , IL, US) observed 0015 UTC 11 December 2018
Temperature: -2.6°C (27°F)
Dewpoint: -4.1°C (25°F) [RH = 89%]
Pressure (altimeter): 30.18 inches Hg (1022.1 mb)
Winds: from the SSW (210 degrees) at 8 MPH (7 knots; 3.6 m/s)
Visibility: 7 miles (11 km)
Ceiling: at least 12,000 feet AGL
Clouds: sky clear below 12,000 feet AGL
Weather: automated observation with no human augmentation;
there may or may not be significant weather present at this time